New Athens, Illinois
Current Conditions -  °F | °C
As of 9:58 AM on Sunday 21 Dec 2014 (Local Time) from KBLV Reporting Station
Overcast Overcast  
Wind Chill: 30°   Ceiling: 2200
Heat Index: 37°   Visibility: 10mi
Dew Point: 32°   Wind: 9mph
Humidity: 83%   Direction: 150°SSE
Pressure: 30.22"   Gusts: NA
Location:  38.33°N, 89.88°W
Report Text: KBLV 211558Z AUTO 15008KT 10SM OVC022 03/00 A3022 RMK AO2 SLP240 T00270001 $
Loading
Personal Weather Stations






























Interactive Weather Map New forecast layout! Learn more

10-Day Weather Forecast

Advertisements
Track Severe Weather on mobile